Time;durP1;ratioP1;P1;durP2;ratioP2;P2;SDS_P1;SDS_P2;PMS_P1;PMS_P2;Temp;Humidity;BMP_temperature;BMP_pressure;BME280_temperature;BME280_humidity;BME280_pressure;Samples;Min_cycle;Max_cycle;Signal;HPM_P1;HPM_P2
2022/05/23 00:02:07;;;;;;;;;7.00;7.00;;;;;19.80;53.48;100250.38;5061224;28;45281;-61
2022/05/23 00:04:33;;;;;;;;;8.33;8.33;;;;;19.79;53.89;100268.44;5066677;28;45422;-61
2022/05/23 00:06:59;;;;;;;;;10.00;8.33;;;;;19.82;53.48;100273.56;5071436;28;46357;-61
2022/05/23 00:09:25;;;;;;;;;7.00;7.00;;;;;19.88;53.21;100255.94;5068659;28;45380;-62
2022/05/23 00:11:51;;;;;;;;;6.67;6.67;;;;;19.93;53.75;100256.34;5063161;28;45811;-62
2022/05/23 00:14:16;;;;;;;;;6.33;6.00;;;;;19.96;53.83;100266.81;5064650;28;45699;-62
2022/05/23 00:16:47;;;;;;;;;6.00;5.00;;;;;20.00;53.09;100279.00;5061316;28;46150;-61
2022/05/23 00:19:13;;;;;;;;;7.00;6.00;;;;;20.06;53.68;100266.75;5065645;28;45748;-62
2022/05/23 00:21:40;;;;;;;;;7.00;6.00;;;;;20.09;53.08;100260.19;5059998;28;45412;-61
2022/05/23 00:24:09;;;;;;;;;6.00;5.00;;;;;20.12;53.45;100263.44;5072133;28;45472;-61
2022/05/23 00:26:35;;;;;;;;;6.00;6.00;;;;;20.13;53.47;100248.97;5066015;28;45552;-61
2022/05/23 00:29:01;;;;;;;;;8.00;6.00;;;;;20.16;53.31;100234.31;5062436;28;45305;-61
2022/05/23 00:31:26;;;;;;;;;6.00;5.00;;;;;20.18;53.19;100243.13;5059782;28;45390;-62
2022/05/23 00:36:35;;;;;;;;;7.00;6.00;;;;;20.20;53.17;100235.69;5068566;28;45424;-61
2022/05/23 00:39:01;;;;;;;;;6.67;6.67;;;;;20.21;52.67;100223.03;5063485;28;45547;-61
2022/05/23 00:44:30;;;;;;;;;6.00;5.33;;;;;20.21;53.00;100190.63;5063708;28;45517;-61
2022/05/23 00:47:03;;;;;;;;;9.67;8.00;;;;;20.17;52.93;100190.94;5057662;28;46080;-61
2022/05/23 00:49:34;;;;;;;;;8.00;6.00;;;;;20.11;53.50;100204.22;5056479;28;45154;-61
2022/05/23 00:52:03;;;;;;;;;6.00;4.67;;;;;20.07;52.96;100197.44;5062127;28;45697;-62
2022/05/23 00:54:34;;;;;;;;;3.00;3.00;;;;;20.06;52.92;100184.94;5065933;28;45386;-62
2022/05/23 00:56:59;;;;;;;;;4.00;4.00;;;;;20.06;53.09;100182.22;5055863;28;46137;-62
2022/05/23 00:59:30;;;;;;;;;6.67;5.67;;;;;20.07;53.11;100186.63;5053420;28;64786;-61
2022/05/23 01:01:57;;;;;;;;;7.33;5.67;;;;;20.08;53.26;100172.16;5049169;28;45807;-62
2022/05/23 01:04:22;;;;;;;;;6.00;5.00;;;;;20.08;53.45;100172.97;5067218;28;45524;-62
2022/05/23 01:06:48;;;;;;;;;7.67;5.00;;;;;20.08;52.93;100182.94;5042618;28;45379;-62
2022/05/23 01:09:13;;;;;;;;;5.67;5.67;;;;;20.05;53.50;100167.91;5060075;28;59857;-62
2022/05/23 01:11:39;;;;;;;;;6.67;5.00;;;;;20.04;53.17;100165.34;5059128;28;45492;-62
2022/05/23 01:14:05;;;;;;;;;6.00;5.00;;;;;20.00;53.50;100165.66;5062657;28;54803;-62
2022/05/23 01:16:30;;;;;;;;;7.00;5.00;;;;;19.98;53.36;100146.06;5059925;28;46893;-61
2022/05/23 01:18:56;;;;;;;;;5.00;5.00;;;;;19.96;53.64;100137.28;5060185;28;64795;-61
2022/05/23 01:21:30;;;;;;;;;4.33;4.00;;;;;19.92;53.80;100124.22;5053176;28;45300;-62
2022/05/23 01:24:12;;;;;;;;;6.00;6.00;;;;;19.92;53.54;100116.13;5059975;28;45761;-62
2022/05/23 01:26:37;;;;;;;;;8.00;6.00;;;;;19.89;53.45;100116.44;5045643;28;47231;-62
2022/05/23 01:29:11;;;;;;;;;4.00;3.00;;;;;19.86;53.64;100114.91;5060975;28;66100;-62
2022/05/23 01:31:38;;;;;;;;;7.00;5.67;;;;;19.87;53.73;100111.22;5052472;28;45309;-62
2022/05/23 01:34:03;;;;;;;;;5.33;4.00;;;;;19.81;53.76;100098.31;5065058;28;45586;-62
2022/05/23 01:36:28;;;;;;;;;6.00;6.00;;;;;19.72;53.91;100093.84;5054021;28;67121;-62
2022/05/23 01:38:53;;;;;;;;;4.67;3.33;;;;;19.68;53.98;100079.78;5060376;28;63667;-62
2022/05/23 01:41:20;;;;;;;;;4.00;4.00;;;;;19.65;54.15;100074.72;5053086;28;58198;-62
2022/05/23 01:43:45;;;;;;;;;6.00;4.50;;;;;19.62;54.17;100080.41;5060273;28;45741;-62
2022/05/23 01:46:10;;;;;;;;;5.33;5.33;;;;;19.60;54.09;100069.78;5054911;28;46857;-62
2022/05/23 01:48:36;;;;;;;;;4.00;4.00;;;;;19.59;54.26;100059.13;5060445;28;64743;-62
2022/05/23 01:51:01;;;;;;;;;7.00;6.00;;;;;19.56;54.31;100048.66;5053973;28;60423;-62
2022/05/23 01:53:27;;;;;;;;;10.67;7.00;;;;;19.51;55.36;100044.56;5056653;28;58950;-62
2022/05/23 01:55:52;;;;;;;;;5.00;5.00;;;;;19.45;54.40;100042.50;5056197;28;50057;-62
2022/05/23 02:01:15;;;;;;;;;10.33;7.00;;;;;19.46;54.89;100028.03;5053536;28;45463;-62
2022/05/23 02:03:42;;;;;;;;;7.00;6.33;;;;;19.47;54.55;100026.16;5057894;28;45306;-61
2022/05/23 02:06:07;;;;;;;;;8.00;8.00;;;;;19.49;54.68;100029.56;5064400;28;45517;-62
2022/05/23 02:08:33;;;;;;;;;8.33;8.33;;;;;19.48;54.52;100034.09;5060986;28;67142;-62
2022/05/23 02:10:58;;;;;;;;;7.00;7.00;;;;;19.48;54.57;100030.56;5059334;28;45367;-62
2022/05/23 02:13:24;;;;;;;;;5.67;5.67;;;;;19.49;55.07;100033.09;5059698;28;45514;-62
2022/05/23 02:15:49;;;;;;;;;7.00;7.00;;;;;19.47;54.74;100034.25;5065372;28;45341;-62
2022/05/23 02:18:14;;;;;;;;;8.67;8.67;;;;;19.46;54.40;100043.34;5062971;28;60611;-62
2022/05/23 02:20:40;;;;;;;;;9.33;7.00;;;;;19.46;54.64;100048.72;5058217;28;45369;-62
2022/05/23 02:23:05;;;;;;;;;8.00;7.00;;;;;19.43;54.77;100040.94;5058981;28;64544;-62
2022/05/23 02:25:30;;;;;;;;;8.00;7.00;;;;;19.43;54.73;100043.66;5060911;28;66090;-62
2022/05/23 02:27:56;;;;;;;;;6.33;5.00;;;;;19.47;54.85;100048.56;5059648;28;63222;-62
2022/05/23 02:30:21;;;;;;;;;6.00;6.00;;;;;19.50;54.82;100066.28;5059387;28;45378;-62
2022/05/23 02:32:47;;;;;;;;;7.67;5.67;;;;;19.51;54.65;100058.03;5059840;28;45345;-62
2022/05/23 02:35:16;;;;;;;;;8.00;8.00;;;;;19.54;54.56;100056.06;5059979;28;46070;-62
2022/05/23 02:37:42;;;;;;;;;5.67;5.67;;;;;19.56;54.78;100054.06;5065835;28;45374;-63
2022/05/23 02:40:08;;;;;;;;;8.33;7.00;;;;;19.56;54.61;100051.38;5059579;28;45447;-62
2022/05/23 02:42:34;;;;;;;;;8.33;8.33;;;;;19.57;54.55;100050.34;5066184;28;45508;-61
2022/05/23 02:44:59;;;;;;;;;10.33;9.00;;;;;19.57;54.61;100044.94;5059201;28;62562;-62
2022/05/23 02:47:24;;;;;;;;;6.00;6.00;;;;;19.57;54.83;100040.41;5057724;28;60742;-62
2022/05/23 02:49:50;;;;;;;;;9.33;5.67;;;;;19.58;54.66;100042.13;5055599;28;62693;-62
2022/05/23 02:52:15;;;;;;;;;7.00;5.33;;;;;19.60;54.54;100044.66;5044729;28;45513;-62
2022/05/23 02:54:41;;;;;;;;;8.00;8.00;;;;;19.60;54.80;100056.28;5058171;28;64586;-62
2022/05/23 02:57:06;;;;;;;;;8.67;8.67;;;;;19.61;54.56;100059.84;5057354;28;45455;-61
2022/05/23 02:59:31;;;;;;;;;10.00;7.00;;;;;19.60;54.62;100061.69;5057667;28;46242;-62
2022/05/23 03:04:42;;;;;;;;;6.33;6.00;;;;;19.59;54.89;100062.69;5066403;28;45383;-62
2022/05/23 03:07:08;;;;;;;;;9.33;8.00;;;;;19.58;54.78;100047.53;5069010;28;45569;-62
2022/05/23 03:09:33;;;;;;;;;6.67;6.67;;;;;19.59;55.12;100059.97;5061497;28;46191;-62
2022/05/23 03:11:59;;;;;;;;;6.67;6.00;;;;;19.58;54.88;100049.34;5061344;28;45562;-62
2022/05/23 03:14:26;;;;;;;;;6.33;6.33;;;;;19.58;55.18;100060.13;5063505;28;46072;-62
2022/05/23 03:16:52;;;;;;;;;8.00;8.00;;;;;19.57;55.05;100051.22;5057534;28;45522;-62
2022/05/23 03:19:17;;;;;;;;;8.33;8.33;;;;;19.58;55.18;100063.69;5065064;28;45526;-62
2022/05/23 03:27:11;;;;;;;;;11.33;10.00;;;;;19.57;55.01;100061.13;5059239;28;45291;-62
2022/05/23 03:29:36;;;;;;;;;8.00;8.00;;;;;19.57;54.71;100050.34;5060865;28;45359;-62
2022/05/23 03:32:02;;;;;;;;;6.00;6.00;;;;;19.58;55.03;100031.34;5059175;28;46522;-62
2022/05/23 03:34:27;;;;;;;;;5.33;5.33;;;;;19.59;55.03;100005.19;5061624;28;46279;-62
2022/05/23 03:36:52;;;;;;;;;8.00;8.00;;;;;19.57;55.43;99994.56;5054957;28;65476;-62
2022/05/23 03:39:18;;;;;;;;;7.00;7.00;;;;;19.55;55.26;99982.25;5061501;28;45425;-62
2022/05/23 03:41:43;;;;;;;;;8.33;7.33;;;;;19.52;55.25;99983.41;5059647;28;45658;-62
2022/05/23 03:44:09;;;;;;;;;9.33;9.33;;;;;19.50;55.29;100006.97;5057471;28;45509;-62
2022/05/23 03:46:35;;;;;;;;;10.33;7.67;;;;;19.49;55.23;100005.28;5063016;28;55364;-62
2022/05/23 03:49:06;;;;;;;;;9.67;8.33;;;;;19.49;55.43;100016.91;5060736;28;45370;-62
2022/05/23 03:51:32;;;;;;;;;7.67;7.00;;;;;19.49;55.34;100011.53;5058255;28;45944;-62
2022/05/23 03:53:57;;;;;;;;;10.00;9.33;;;;;19.48;55.52;99995.50;5059251;28;46310;-62
2022/05/23 03:56:23;;;;;;;;;10.00;6.33;;;;;19.46;55.53;99978.63;5058140;28;56774;-62
2022/05/23 03:58:48;;;;;;;;;10.67;10.67;;;;;19.42;55.48;99971.84;5056770;28;60640;-62
2022/05/23 04:01:18;;;;;;;;;13.00;11.00;;;;;19.39;55.54;99981.09;5058264;28;45714;-62
2022/05/23 04:03:43;;;;;;;;;14.00;12.00;;;;;19.39;55.34;99983.78;5058706;28;46171;-62
2022/05/23 04:06:09;;;;;;;;;12.00;12.00;;;;;19.39;55.65;99999.13;5057528;28;45512;-62
2022/05/23 04:08:35;;;;;;;;;11.67;10.00;;;;;19.36;55.46;99991.31;5062490;28;51648;-62
2022/05/23 04:11:02;;;;;;;;;12.00;12.00;;;;;19.35;55.69;99987.78;5064623;28;45351;-62
2022/05/23 04:13:28;;;;;;;;;12.67;12.00;;;;;19.34;55.57;99978.00;5059618;28;45434;-62
2022/05/23 04:15:53;;;;;;;;;12.33;11.33;;;;;19.32;55.58;99980.84;5058719;28;45511;-62
2022/05/23 04:18:18;;;;;;;;;12.33;9.33;;;;;19.33;56.10;99969.06;5063400;28;45477;-61
2022/05/23 04:20:44;;;;;;;;;11.00;11.00;;;;;19.32;56.00;99956.59;5056129;28;58471;-62
2022/05/23 04:23:10;;;;;;;;;10.67;10.67;;;;;19.30;55.82;99952.34;5058902;28;48032;-62
2022/05/23 04:25:43;;;;;;;;;18.33;15.00;;;;;19.28;56.05;99946.25;5062624;28;45316;-62
2022/05/23 04:28:09;;;;;;;;;22.33;19.33;;;;;19.25;55.81;99936.63;5060223;28;46739;-62
2022/05/23 04:30:35;;;;;;;;;23.67;21.33;;;;;19.23;56.33;99919.78;5057928;28;45502;-62
2022/05/23 04:35:46;;;;;;;;;22.67;19.67;;;;;19.17;56.49;99913.13;5054547;28;45939;-62
2022/05/23 04:38:11;;;;;;;;;16.67;16.33;;;;;19.14;57.12;99904.53;5063342;28;58343;-62
2022/05/23 04:40:37;;;;;;;;;17.67;16.00;;;;;19.05;57.24;99911.69;5066528;28;45399;-62
2022/05/23 04:43:03;;;;;;;;;17.00;15.33;;;;;18.98;57.39;99924.06;5065015;28;45355;-62
2022/05/23 04:45:28;;;;;;;;;20.33;18.00;;;;;18.94;57.63;99914.59;5060247;28;45546;-61
2022/05/23 04:50:38;;;;;;;;;20.00;16.33;;;;;18.89;58.34;99912.38;5054523;28;45383;-63
2022/05/23 04:53:04;;;;;;;;;19.67;19.67;;;;;18.91;58.39;99910.38;5074909;28;65804;-62
2022/05/23 04:55:29;;;;;;;;;16.67;15.67;;;;;18.92;58.23;99919.31;5062105;28;45444;-62
2022/05/23 04:57:58;;;;;;;;;15.33;14.33;;;;;18.94;58.70;99931.63;5060597;28;45260;-62
2022/05/23 05:00:24;;;;;;;;;13.33;13.33;;;;;18.98;58.45;99921.38;5058494;28;45395;-62
2022/05/23 05:02:49;;;;;;;;;16.33;12.67;;;;;19.00;58.80;99909.44;5060698;28;45584;-62
2022/05/23 05:05:16;;;;;;;;;11.67;11.67;;;;;19.03;58.53;99905.59;5071689;28;45449;-62
2022/05/23 05:07:41;;;;;;;;;11.33;11.33;;;;;19.03;58.62;99915.53;5060358;28;45510;-62
2022/05/23 05:10:07;;;;;;;;;12.67;11.00;;;;;19.03;58.68;99900.19;5064644;28;55939;-62
2022/05/23 05:12:33;;;;;;;;;10.67;10.67;;;;;19.03;58.92;99889.44;5063121;28;45300;-62
2022/05/23 05:14:58;;;;;;;;;11.67;10.00;;;;;19.00;59.03;99881.66;5061655;28;61029;-62
2022/05/23 05:17:24;;;;;;;;;10.00;9.33;;;;;18.97;59.00;99912.44;5061634;28;45301;-62
2022/05/23 05:19:50;;;;;;;;;12.00;10.00;;;;;18.95;59.25;99886.66;5070015;28;45440;-62
2022/05/23 05:22:15;;;;;;;;;12.00;10.33;;;;;18.94;59.40;99877.75;5062080;28;45434;-62
2022/05/23 05:24:40;;;;;;;;;9.67;9.67;;;;;18.92;59.30;99873.50;5058312;28;62209;-62
2022/05/23 05:27:06;;;;;;;;;12.67;10.33;;;;;18.90;59.34;99870.09;5060508;28;45316;-62
2022/05/23 05:29:32;;;;;;;;;10.00;8.33;;;;;18.89;59.54;99874.66;5059977;28;61084;-62
2022/05/23 05:32:11;;;;;;;;;12.33;11.00;;;;;18.91;59.96;99855.63;5060414;28;45239;-62
2022/05/23 05:34:48;;;;;;;;;10.00;10.00;;;;;18.94;59.72;99839.16;5064137;28;45407;-62
2022/05/23 05:37:21;;;;;;;;;7.00;7.00;;;;;18.93;59.81;99834.75;5074855;27;45405;-62
2022/05/23 05:39:47;;;;;;;;;13.00;9.00;;;;;18.91;59.88;99821.44;5063020;28;45533;-63
2022/05/23 05:42:12;;;;;;;;;8.33;7.33;;;;;18.91;59.96;99829.53;5069417;28;63986;-62
2022/05/23 05:44:43;;;;;;;;;9.00;9.00;;;;;18.88;59.97;99835.22;5062932;28;45340;-62
2022/05/23 05:47:11;;;;;;;;;10.00;10.00;;;;;18.87;60.50;99854.22;5049082;28;45760;-63
2022/05/23 05:49:39;;;;;;;;;12.33;9.67;;;;;18.88;60.34;99885.53;5054824;28;46012;-62
2022/05/23 05:52:06;;;;;;;;;9.67;9.00;;;;;18.86;60.59;99891.06;5054984;28;45448;-61
2022/05/23 05:54:32;;;;;;;;;11.33;10.00;;;;;18.86;60.96;99891.06;5065473;28;46612;-61
2022/05/23 05:57:01;;;;;;;;;9.33;9.33;;;;;18.90;60.74;99887.09;5070444;28;60786;-61
2022/05/23 05:59:28;;;;;;;;;11.33;10.33;;;;;18.94;60.75;99882.25;5070250;28;45470;-62
2022/05/23 06:01:53;;;;;;;;;12.33;11.33;;;;;18.94;60.89;99872.34;5059564;28;46526;-62
2022/05/23 06:04:18;;;;;;;;;11.00;11.00;;;;;18.97;60.75;99855.88;5058123;28;64873;-62
2022/05/23 06:12:11;;;;;;;;;12.00;10.33;;;;;19.13;60.85;99867.81;5058293;28;45454;-62
2022/05/23 06:14:37;;;;;;;;;17.67;14.00;;;;;19.18;61.28;99876.28;5056329;28;63330;-61
2022/05/23 06:17:06;;;;;;;;;12.67;12.67;;;;;19.21;61.08;99878.66;5059562;28;62574;-60
2022/05/23 06:19:38;;;;;;;;;13.00;11.00;;;;;19.25;61.27;99874.63;5064344;28;45359;-61
2022/05/23 06:22:05;;;;;;;;;11.67;10.33;;;;;19.26;60.98;99870.09;5056463;28;46038;-60
2022/05/23 06:24:30;;;;;;;;;12.33;12.33;;;;;19.27;61.30;99878.03;5058683;28;45172;-61
2022/05/23 06:26:55;;;;;;;;;11.33;8.00;;;;;19.32;61.43;99872.16;5058318;28;60792;-61
2022/05/23 06:29:21;;;;;;;;;10.33;10.33;;;;;19.33;61.48;99863.06;5057925;28;62109;-61
2022/05/23 06:31:47;;;;;;;;;11.00;9.67;;;;;19.36;61.48;99859.22;5067317;28;66151;-61
2022/05/23 06:34:14;;;;;;;;;7.00;7.00;;;;;19.39;61.43;99853.53;5059315;28;45368;-62
2022/05/23 06:36:40;;;;;;;;;12.00;10.67;;;;;19.41;61.38;99855.06;5062418;28;45565;-61
2022/05/23 06:39:06;;;;;;;;;10.67;10.67;;;;;19.43;61.66;99846.81;5063074;27;45646;-61
2022/05/23 06:41:31;;;;;;;;;9.33;8.00;;;;;19.44;61.17;99848.50;5066072;28;46283;-61
2022/05/23 06:43:57;;;;;;;;;8.00;8.00;;;;;19.44;61.32;99843.94;5064385;28;45306;-60
2022/05/23 06:46:24;;;;;;;;;9.33;8.33;;;;;19.45;61.64;99836.69;5060989;28;45625;-60
2022/05/23 06:48:49;;;;;;;;;8.00;6.67;;;;;19.46;61.44;99806.03;5064229;28;45238;-59
2022/05/23 06:51:14;;;;;;;;;8.67;7.67;;;;;19.47;61.56;99797.78;5060345;28;66980;-59
2022/05/23 06:53:40;;;;;;;;;9.33;7.33;;;;;19.50;61.65;99805.59;5053570;28;62316;-60
2022/05/23 06:56:06;;;;;;;;;11.67;10.00;;;;;19.52;61.18;99821.59;5058015;28;45429;-60
2022/05/23 06:58:31;;;;;;;;;7.00;6.33;;;;;19.48;61.46;99812.13;5057884;28;45475;-61
2022/05/23 07:00:57;;;;;;;;;8.00;8.00;;;;;19.46;61.56;99817.69;5054600;28;56806;-60
2022/05/23 07:03:22;;;;;;;;;9.33;8.00;;;;;19.44;61.57;99803.50;5062069;28;45432;-61
2022/05/23 07:14:00;;;;;;;;;8.00;8.00;;;;;19.42;62.28;99799.28;5051388;28;45506;-61
2022/05/23 07:16:26;;;;;;;;;8.33;8.33;;;;;19.39;62.49;99808.53;5058174;28;45395;-60
2022/05/23 07:18:52;;;;;;;;;11.00;9.33;;;;;19.39;62.44;99810.38;5055000;28;45448;-61
2022/05/23 07:21:17;;;;;;;;;11.00;7.67;;;;;19.42;62.56;99812.75;5069168;28;45437;-61
2022/05/23 07:23:43;;;;;;;;;11.00;8.00;;;;;19.39;62.63;99805.84;5072216;28;45387;-61
2022/05/23 07:26:11;;;;;;;;;7.00;7.00;;;;;19.37;62.63;99807.00;5066581;28;54514;-61
2022/05/23 07:28:36;;;;;;;;;10.33;8.00;;;;;19.37;63.43;99810.53;5070300;28;45649;-60
2022/05/23 07:31:03;;;;;;;;;9.33;8.67;;;;;19.38;63.21;99828.41;5040037;28;48196;-61
2022/05/23 07:33:29;;;;;;;;;8.33;7.00;;;;;19.36;62.91;99818.78;5061295;28;45396;-61
2022/05/23 07:35:56;;;;;;;;;8.00;8.00;;;;;19.32;63.38;99821.81;5055812;28;45321;-61
2022/05/23 07:38:22;;;;;;;;;9.33;7.67;;;;;19.29;63.43;99826.66;5047442;28;45730;-60
2022/05/23 07:40:52;;;;;;;;;9.00;9.00;;;;;19.26;63.10;99838.59;5059265;28;66373;-61
2022/05/23 07:43:18;;;;;;;;;10.33;7.33;;;;;19.25;63.14;99825.28;5063628;28;45470;-61
2022/05/23 07:45:43;;;;;;;;;7.67;7.33;;;;;19.22;64.03;99826.44;5063565;28;45269;-61
2022/05/23 07:48:09;;;;;;;;;8.00;8.00;;;;;19.17;63.62;99824.19;5061540;28;45624;-61
2022/05/23 07:50:34;;;;;;;;;10.67;9.67;;;;;19.18;63.72;99831.28;5066800;28;66220;-60
2022/05/23 08:01:13;;;;;;;;;8.00;7.67;;;;;19.44;63.68;99735.28;5063579;28;45241;-61
2022/05/23 08:03:40;;;;;;;;;9.33;7.00;;;;;19.50;63.88;99718.44;5069562;28;45229;-61
2022/05/23 08:06:05;;;;;;;;;12.33;8.33;;;;;19.55;63.90;99750.31;5020847;28;45541;-61
2022/05/23 08:08:31;;;;;;;;;8.33;7.67;;;;;19.58;63.55;99753.53;5019341;28;45552;-60
2022/05/23 08:10:57;;;;;;;;;7.00;7.00;;;;;19.61;63.74;99766.69;5023946;28;46315;-61
2022/05/23 08:13:23;;;;;;;;;9.00;9.00;;;;;19.66;63.48;99771.63;5035383;28;45604;-61
2022/05/23 08:15:48;;;;;;;;;13.00;9.33;;;;;19.71;63.46;99769.28;5024535;28;60431;-61
2022/05/23 08:18:16;;;;;;;;;8.33;8.33;;;;;19.75;63.40;99777.88;5022189;28;59726;-61
2022/05/23 08:20:41;;;;;;;;;12.33;10.67;;;;;19.80;63.14;99781.81;5021419;28;47062;-61
2022/05/23 08:23:06;;;;;;;;;11.00;10.33;;;;;19.82;63.14;99773.56;5031735;28;63279;-61
2022/05/23 08:25:33;;;;;;;;;7.00;6.33;;;;;19.86;63.22;99779.50;5022932;28;45715;-61
2022/05/23 08:27:59;;;;;;;;;10.67;10.33;;;;;19.89;63.33;99777.31;5022304;28;45471;-62
2022/05/23 08:30:24;;;;;;;;;12.00;12.00;;;;;19.90;63.87;99776.31;5027080;28;58373;-61
2022/05/23 08:32:50;;;;;;;;;12.00;11.33;;;;;19.88;64.03;99794.53;5021417;28;45562;-61
2022/05/23 08:35:15;;;;;;;;;9.67;9.33;;;;;19.88;64.14;99796.34;5028208;28;45327;-60
2022/05/23 08:37:41;;;;;;;;;12.67;9.33;;;;;19.88;63.60;99801.75;5024303;28;45457;-61
2022/05/23 08:40:08;;;;;;;;;12.67;11.00;;;;;19.84;63.58;99809.31;5024069;28;45942;-61
2022/05/23 08:42:56;;;;;;;;;9.00;9.00;;;;;19.78;64.15;99807.25;5028495;28;45419;-61
2022/05/23 08:45:30;;;;;;;;;10.33;10.00;;;;;19.74;64.10;99809.41;5024268;28;45649;-60
2022/05/23 08:48:08;;;;;;;;;10.00;10.00;;;;;19.73;63.93;99796.94;5050609;28;45385;-62
2022/05/23 08:50:49;;;;;;;;;9.67;9.67;;;;;19.75;63.51;99799.47;5025650;28;45583;-61
2022/05/23 08:53:40;;;;;;;;;11.67;11.00;;;;;19.76;64.16;99798.47;5028018;28;45643;-61
2022/05/23 08:56:18;;;;;;;;;9.00;8.33;;;;;19.77;64.05;99805.56;5022080;28;45491;-61
2022/05/23 08:58:52;;;;;;;;;11.67;11.67;;;;;19.76;64.14;99804.69;5033716;28;45512;-61
2022/05/23 09:01:57;;;;;;;;;11.67;10.33;;;;;19.76;64.08;99811.94;5056386;28;46227;-61
2022/05/23 09:04:42;;;;;;;;;10.33;8.67;;;;;19.76;64.33;99812.78;5025611;28;45497;-61
2022/05/23 09:07:13;;;;;;;;;12.67;10.33;;;;;19.77;64.19;99808.25;5057855;28;45601;-61
2022/05/23 09:09:39;;;;;;;;;13.00;13.00;;;;;19.78;64.28;99812.66;5062861;28;45482;-61
2022/05/23 09:12:10;;;;;;;;;14.67;11.33;;;;;19.79;64.30;99822.41;5046415;28;45927;-61
2022/05/23 09:14:36;;;;;;;;;16.33;15.33;;;;;19.81;63.99;99820.41;5042134;28;45397;-62
2022/05/23 09:17:03;;;;;;;;;19.33;16.00;;;;;19.83;63.60;99813.03;5039728;28;45551;-62
2022/05/23 09:19:41;;;;;;;;;11.67;11.67;;;;;19.83;63.38;99815.75;5058838;28;45962;-61
2022/05/23 09:22:13;;;;;;;;;12.33;11.67;;;;;19.82;63.21;99814.88;5045374;28;47185;-62
2022/05/23 09:24:59;;;;;;;;;10.67;10.67;;;;;19.80;62.91;99800.69;5039238;28;45826;-62
2022/05/23 09:27:31;;;;;;;;;13.67;13.33;;;;;19.82;62.92;99805.94;5040541;28;45344;-62
2022/05/23 09:29:58;;;;;;;;;18.00;18.00;;;;;19.83;62.71;99799.56;5045527;28;45480;-61
2022/05/23 09:32:36;;;;;;;;;11.00;11.00;;;;;19.85;62.81;99802.91;5049650;28;45451;-61
2022/05/23 09:35:43;;;;;;;;;9.67;9.67;;;;;19.87;62.55;99797.34;5041551;28;45676;-61
2022/05/23 09:38:17;;;;;;;;;17.67;16.67;;;;;19.89;62.07;99800.75;5050199;28;46740;-63
2022/05/23 09:40:43;;;;;;;;;15.67;15.00;;;;;19.90;62.18;99795.19;5038520;28;45429;-63
2022/05/23 09:49:07;;;;;;;;;15.67;15.00;;;;;20.04;61.81;99795.56;5041540;28;45516;-62
2022/05/23 09:51:48;;;;;;;;;17.67;16.33;;;;;20.04;61.07;99788.34;5044604;28;45626;-62
2022/05/23 09:54:40;;;;;;;;;16.00;14.67;;;;;20.06;61.61;99780.06;5037742;28;46342;-62
2022/05/23 09:57:24;;;;;;;;;18.00;14.67;;;;;20.12;61.55;99782.13;5038773;28;45407;-62
2022/05/23 09:59:55;;;;;;;;;13.33;13.33;;;;;20.17;61.12;99787.88;5047263;28;45521;-62
2022/05/23 10:02:37;;;;;;;;;14.33;14.33;;;;;20.22;60.95;99792.78;5036458;28;45440;-62
2022/05/23 10:05:06;;;;;;;;;18.67;18.67;;;;;20.26;61.10;99802.22;5049890;28;47147;-62
2022/05/23 10:07:35;;;;;;;;;20.67;20.33;;;;;20.26;60.74;99789.59;5064634;28;45418;-62
2022/05/23 10:10:05;;;;;;;;;19.33;19.33;;;;;20.29;60.68;99789.25;5059292;28;45493;-62
2022/05/23 10:12:32;;;;;;;;;22.00;20.67;;;;;20.29;60.27;99785.72;5056634;28;45565;-62
2022/05/23 10:15:23;;;;;;;;;21.67;18.33;;;;;20.31;60.48;99778.28;5059523;28;46037;-62
2022/05/23 10:18:09;;;;;;;;;18.33;18.33;;;;;20.37;60.51;99777.63;5042529;28;45326;-61
2022/05/23 10:20:40;;;;;;;;;21.67;21.00;;;;;20.39;59.85;99782.88;5046714;28;45473;-61
2022/05/23 10:23:14;;;;;;;;;20.33;19.67;;;;;20.36;60.41;99784.03;5066200;28;45478;-61
2022/05/23 10:26:00;;;;;;;;;22.67;19.33;;;;;20.36;60.38;99796.72;5064948;28;46288;-62
2022/05/23 10:28:38;;;;;;;;;17.00;17.00;;;;;20.32;60.17;99790.78;5057896;28;45462;-61
2022/05/23 10:31:21;;;;;;;;;15.67;15.00;;;;;20.27;60.28;99788.59;5057397;28;45419;-61
2022/05/23 10:33:53;;;;;;;;;19.33;17.33;;;;;20.23;60.24;99783.69;5037958;28;45913;-61
2022/05/23 10:36:24;;;;;;;;;19.67;19.33;;;;;20.18;59.89;99784.19;5067635;28;45398;-61
2022/05/23 10:42:09;;;;;;;;;23.33;21.67;;;;;20.16;59.58;99789.72;5058710;28;45323;-50
2022/05/23 10:45:08;;;;;;;;;17.00;16.33;;;;;20.19;59.83;99777.75;5065666;28;45411;-68
2022/05/23 10:47:48;;;;;;;;;22.00;20.67;;;;;20.24;59.74;99783.50;5061505;28;45541;-46
2022/05/23 10:50:39;;;;;;;;;16.33;16.33;;;;;20.25;59.25;99785.19;5050675;28;45638;-60
2022/05/23 10:53:04;;;;;;;;;20.67;20.33;;;;;20.24;59.14;99790.78;5059972;28;45291;-60
2022/05/23 10:55:45;;;;;;;;;18.33;18.33;;;;;20.21;59.12;99778.44;5059469;28;45335;-60
2022/05/23 10:58:43;;;;;;;;;21.67;20.00;;;;;20.20;59.93;99787.53;5065453;28;46164;-60
2022/05/23 11:01:53;;;;;;;;;17.00;17.00;;;;;20.18;60.37;99784.19;4995379;28;46562;-68
2022/05/23 11:04:33;;;;;;;;;20.67;18.33;;;;;20.15;60.58;99788.06;5055019;28;45304;-69
2022/05/23 11:06:58;;;;;;;;;21.33;18.67;;;;;20.16;60.53;99776.22;5048559;28;45573;-69
2022/05/23 11:09:42;;;;;;;;;17.33;16.67;;;;;20.17;60.85;99782.50;5075170;28;46360;-69
2022/05/23 11:12:27;;;;;;;;;19.67;19.00;;;;;20.17;61.56;99787.88;5061056;28;45600;-69
2022/05/23 11:14:55;;;;;;;;;35.67;31.67;;;;;20.14;60.88;99782.78;5049830;28;45707;-69
2022/05/23 11:17:28;;;;;;;;;18.00;17.67;;;;;20.11;61.51;99799.31;5053074;28;45307;-69
2022/05/23 11:20:20;;;;;;;;;20.33;20.33;;;;;20.04;61.04;99803.66;5059918;28;46257;-47
2022/05/23 11:23:24;;;;;;;;;23.67;17.00;;;;;19.97;60.96;99806.19;5036978;28;45493;-47
2022/05/23 11:25:57;;;;;;;;;17.33;17.33;;;;;19.89;61.45;99798.88;5032855;28;45484;-48
2022/05/23 11:34:22;;;;;;;;;17.00;16.67;;;;;19.64;62.08;99792.50;5038775;28;45430;-63
2022/05/23 11:37:01;;;;;;;;;19.00;16.33;;;;;19.62;62.35;99800.75;5069115;27;45685;-64
2022/05/23 11:39:44;;;;;;;;;17.33;16.33;;;;;19.61;62.09;99803.63;5054899;28;45547;-61
2022/05/23 11:42:29;;;;;;;;;21.00;21.00;;;;;19.61;62.19;99806.31;5059825;28;46065;-61
2022/05/23 11:44:58;;;;;;;;;18.67;18.67;;;;;19.60;62.97;99801.94;5061237;28;45318;-65
2022/05/23 11:47:28;;;;;;;;;23.33;18.33;;;;;19.58;62.75;99799.41;5052270;28;45635;-64
2022/05/23 11:50:00;;;;;;;;;18.67;18.33;;;;;19.54;62.46;99814.16;5061534;28;45469;-65
2022/05/23 11:52:33;;;;;;;;;25.33;21.00;;;;;19.49;63.32;99801.19;5060574;28;45449;-64
2022/05/23 11:54:59;;;;;;;;;22.67;22.00;;;;;19.49;63.40;99811.97;5059123;28;45558;-65
2022/05/23 11:57:37;;;;;;;;;22.67;22.67;;;;;19.48;63.20;99810.28;5067613;28;45418;-64
2022/05/23 12:00:05;;;;;;;;;25.00;23.67;;;;;19.45;63.60;99816.00;5062698;28;45481;-65
2022/05/23 12:02:33;;;;;;;;;18.67;18.33;;;;;19.46;64.44;99820.38;5059453;28;45446;-64
2022/05/23 12:04:59;;;;;;;;;17.00;15.67;;;;;19.42;64.53;99823.53;5062075;28;45510;-65
2022/05/23 12:07:31;;;;;;;;;25.00;22.00;;;;;19.34;63.75;99827.03;5063916;28;45491;-65
2022/05/23 12:09:56;;;;;;;;;21.67;20.00;;;;;19.25;63.42;99831.50;5073421;28;45294;-54
2022/05/23 12:12:24;;;;;;;;;19.00;18.67;;;;;19.17;63.89;99834.97;5067992;28;59815;-65
2022/05/23 12:14:52;;;;;;;;;22.00;18.67;;;;;19.09;63.92;99843.00;5061196;28;45404;-63
2022/05/23 12:17:28;;;;;;;;;23.67;19.33;;;;;19.04;64.58;99839.94;5062134;28;45482;-63
2022/05/23 12:19:55;;;;;;;;;17.67;15.67;;;;;19.03;64.53;99843.63;5064080;28;45361;-62
2022/05/23 12:22:29;;;;;;;;;20.33;20.00;;;;;19.03;64.17;99840.91;5067690;28;46221;-61
2022/05/23 12:25:10;;;;;;;;;19.67;16.33;;;;;19.00;64.81;99850.16;5067754;28;45446;-61
2022/05/23 12:27:44;;;;;;;;;18.00;18.00;;;;;19.00;64.16;99844.78;5063999;28;45407;-62
2022/05/23 12:30:22;;;;;;;;;17.67;17.67;;;;;18.99;64.76;99839.53;5059694;28;45379;-62
2022/05/23 12:32:58;;;;;;;;;17.67;17.67;;;;;18.98;64.32;99851.31;5072530;28;46123;-62